7CO5 weather

Yocam Ranch Airport
Orchard, Colorado, United States

Public forecast

Using degrees Fahrenheit for public forecast. Weather courtesy of forecast.io.

Closest aviation weather report (METAR) to Yocam Ranch Airport

Closest report is Fort Morgan Municipal Airport, 19.6 nm (36.3 km) E. Retrieved 2020/08/03 20:35 UTC (7 minutes ago):

KFMM 032035Z AUTO 14017G21KT 10SM CLR 29/09 A3011 RMK AO2 T02890092

Closest aviation forecast (TAF) to Yocam Ranch Airport

Closest forecast is Denver International Airport, 33.3 nm (61.6 km) SW. Retrieved 2020/08/03 18:33 UTC (2 hours ago):

TAF KDEN 031730Z 0318/0424 01007KT P6SM FEW090 SCT220 FM032000 09010KT P6SM SCT080 BKN140 TEMPO 0322/0401 VRB24G34KT TSRA BKN060CB FM040200 15012G20KT P6SM FEW100 SCT150 FM040500 19008KT P6SM SCT180 FM041500 30008KT P6SM FEW100 SCT160 FM041800 03011KT P6SM SCT080 BKN140 PROB30 0420/0424 VRB20G34KT P6SM -TSRA BKN060CB